Startpagina
METAR-TAF:

METAR-TAF

Vliegvelden :

McCall Municipal Airport

McCall, Idaho, Verenigde Staten

breedte: 44-53-00N, lengte: 116-05-58W, hoogte: 1530 m

Actueel weer

Dit bericht is 47 minuten geleden gemaakt, om 10:51 UTC
Weinig wind
Temperatuur 11°C
Vochtigheid 71%
Druk 1021 hPa
Zicht: 16.1 km
Onbewolkt

METAR: KMYL 191051Z AUTO 00000KT 10SM CLR 11/06 A3016 RMK AO2 SLP163 T01110056

Tijdstip: 05:38 (11:38 UTC)

Verwachting

Dit bericht is 18 minuten geleden gemaakt, om 11:20 UTC
Verwachting geldig van 19 om 12 UTC tot 20 om 12 UTC
Wind 3 kt uit variabele richting
Zicht: 10 km
Verspreide wolken op 15000 ft
Van 19 om 2100 UTC
Wind 7 kt uit het zuidwesten
Zicht: 10 km
Verspreide wolken op 15000 ft
Van 20 om 0200 UTC
Wind 3 kt uit variabele richting
Zicht: 10 km
Onbewolkt

TAF: KMYL 191120Z 1912/2012 VRB03KT P6SM SCT150 FM192100 22007KT P6SM SCT150 FM200200 VRB03KT P6SM SKC

Waarnemingen en weersverwachtingen van meer dan 4000 vliegvelden (METAR en TAF).

De beschikbare stations zijn de gele en rode punten op de kaart.

Ga met uw muis naar het station om de naam te zien.

Klik dan om waarnemingen en weersverwachtingen te zien.

kaart wijzigen: klik op de groene knoppen met een zwart kruis om in te zoomen, op de groene knop met een streepje om uit te zoomen of op de groene pijlen voor aangrenzende kaarten.


METAR-TAF: